Spangle, WA (99031)

11:46 PM PDT on August 24, 2016 (GMT -0700)
MesoWest | | Change Station

Elev 2443 ft 47.45 °N, 117.39 °W | Updated 1 hour ago

Clear
Clear
64.0 °F
Feels Like 64.0 °F
N
6.0
Wind Variable Wind from North
Gusts 7.0 mph

Today
High -- | Low -- °F
--% Chance of Precip.
Yesterday
High -- | Low -- °F
Precip. -- in
Pressure 30.16 in
Visibility 10.0 miles
Clouds Clear
Dew Point 38.0 °F
Humidity 38%
Rainfall in
Snow Depth Not available.
5:58 AM 7:43 PM
Waning Gibbous, 49% visible
METAR KGEG 250553Z 06005KT 10SM CLR 21/03 A3019 RMK AO2 SLP212 T02060033 10272 20206 50004
Pressure 30.16 in
Visibility 10.0 miles
Clouds Clear
Dew Point 38.0 °F
Humidity 38%
Rainfall in
Snow Depth Not available.
5:58 AM 7:43 PM
Waning Gibbous, 49% visible
METAR KGEG 250553Z 06005KT 10SM CLR 21/03 A3019 RMK AO2 SLP212 T02060033 10272 20206 50004

10-Day Weather Forecast

Almanac

Astronomy

Aug. 24, 2016 Rise Set
Actual Time
Civil Twilight
Nautical Twilight
Astronomical Twilight
Moon
Length of Visible Light
Length of Day
Tomorrow will be .
, % of the Moon is Illuminated

Today's Extremes

State Highs State Lows

Community

WunderPhotos

Upload Photos

1,934,803 photos uploaded!

WunderBlog® & News

Nearby

Air Quality

  Air Quality AQ Index Pollutant
Not available.

Snow Depth

Station Depth Elevation

Earthquake Activity

City Distance Mag. Time & Date
Minimum magnitude displayed is 2.5.

Coastal Water Temperatures

Place Temperature

Stations

Nearby Weather Stations

Station Location Temp. Windchill Dew Point Humidity Wind Precip. Elev Updated Type
                   

Watches & Warnings

There are currently no watches in effect.